Time;durP1;ratioP1;P1;durP2;ratioP2;P2;SDS_P1;SDS_P2;PMS_P1;PMS_P2;Temp;Humidity;BMP_temperature;BMP_pressure;BME280_temperature;BME280_humidity;BME280_pressure;Samples;Min_cycle;Max_cycle;Signal;HPM_P1;HPM_P2
2021/03/09 00:01:33;;;;;;;31.50;17.37;;;;;;;;;;771724;180;915635;-66
2021/03/09 00:04:14;;;;;;;36.60;18.53;;;;;;;;;;765565;182;926342;-70
2021/03/09 00:06:54;;;;;;;37.30;19.23;;;;;;;;;;779041;180;918547;-67
2021/03/09 00:09:35;;;;;;;28.70;16.00;;;;;;;;;;775600;180;918425;-68
2021/03/09 00:12:16;;;;;;;30.02;16.87;;;;;;;;;;774396;180;918705;-67
2021/03/09 00:14:57;;;;;;;29.87;17.67;;;;;;;;;;776277;180;918460;-68
2021/03/09 00:17:39;;;;;;;29.90;15.93;;;;;;;;;;775167;180;915323;-67
2021/03/09 00:20:20;;;;;;;33.03;18.03;;;;;;;;;;773552;180;915742;-68
2021/03/09 00:23:02;;;;;;;31.20;16.30;;;;;;;;;;778799;180;915952;-68
2021/03/09 00:25:43;;;;;;;30.77;16.13;;;;;;;;;;773064;180;914688;-67
2021/03/09 00:28:26;;;;;;;36.93;16.83;;;;;;;;;;778969;180;915463;-68
2021/03/09 00:31:07;;;;;;;24.30;16.10;;;;;;;;;;774854;180;918537;-67
2021/03/09 00:33:48;;;;;;;30.30;16.60;;;;;;;;;;777521;177;919609;-68
2021/03/09 00:36:30;;;;;;;29.07;17.87;;;;;;;;;;770723;180;960490;-67
2021/03/09 00:39:10;;;;;;;31.77;15.60;;;;;;;;;;771139;180;911759;-66
2021/03/09 00:41:51;;;;;;;31.63;16.83;;;;;;;;;;765843;181;940171;-66
2021/03/09 00:44:33;;;;;;;34.73;17.77;;;;;;;;;;771007;180;911541;-69
2021/03/09 00:47:15;;;;;;;26.77;15.83;;;;;;;;;;769193;180;1087163;-67
2021/03/09 00:49:56;;;;;;;31.20;16.63;;;;;;;;;;772202;180;915571;-68
2021/03/09 00:52:37;;;;;;;42.37;21.70;;;;;;;;;;765143;180;913088;-67
2021/03/09 00:55:18;;;;;;;45.73;24.10;;;;;;;;;;773857;180;916170;-67
2021/03/09 00:58:00;;;;;;;49.67;24.40;;;;;;;;;;768627;180;915947;-66
2021/03/09 01:00:42;;;;;;;31.27;18.27;;;;;;;;;;772558;180;916153;-67
2021/03/09 01:03:23;;;;;;;33.80;17.90;;;;;;;;;;771024;178;915544;-67
2021/03/09 01:06:05;;;;;;;36.20;20.57;;;;;;;;;;774044;180;918969;-65
2021/03/09 01:08:45;;;;;;;31.77;18.00;;;;;;;;;;767351;180;1941336;-67
2021/03/09 01:11:28;;;;;;;34.77;19.37;;;;;;;;;;774952;180;919336;-67
2021/03/09 01:14:09;;;;;;;31.00;19.40;;;;;;;;;;769885;180;972212;-66
2021/03/09 01:16:52;;;;;;;28.80;16.40;;;;;;;;;;771581;180;918818;-67
2021/03/09 01:19:32;;;;;;;31.47;15.10;;;;;;;;;;771405;180;919286;-68
2021/03/09 01:22:13;;;;;;;28.80;15.27;;;;;;;;;;771144;180;919306;-67
2021/03/09 01:24:55;;;;;;;26.70;16.40;;;;;;;;;;769439;180;919086;-68
2021/03/09 01:27:36;;;;;;;29.77;16.87;;;;;;;;;;767728;181;919009;-67
2021/03/09 01:30:17;;;;;;;28.65;18.25;;;;;;;;;;772656;180;918676;-66
2021/03/09 01:32:59;;;;;;;30.67;16.10;;;;;;;;;;771939;178;962006;-66
2021/03/09 01:35:40;;;;;;;31.50;17.53;;;;;;;;;;771320;181;918415;-68
2021/03/09 01:38:21;;;;;;;33.00;17.40;;;;;;;;;;771095;180;917882;-68
2021/03/09 01:41:02;;;;;;;31.40;17.80;;;;;;;;;;773917;181;918856;-68
2021/03/09 01:43:43;;;;;;;26.33;16.57;;;;;;;;;;767570;180;910428;-67
2021/03/09 01:46:25;;;;;;;31.57;17.70;;;;;;;;;;772394;180;919496;-65
2021/03/09 01:49:06;;;;;;;28.12;18.20;;;;;;;;;;766690;180;921031;-67
2021/03/09 01:51:48;;;;;;;30.80;20.00;;;;;;;;;;765513;180;921375;-67
2021/03/09 01:54:29;;;;;;;32.83;17.48;;;;;;;;;;770123;179;957855;-69
2021/03/09 01:57:10;;;;;;;29.73;18.60;;;;;;;;;;768164;180;918619;-67
2021/03/09 01:59:51;;;;;;;35.47;18.00;;;;;;;;;;765137;180;918432;-67
2021/03/09 02:02:32;;;;;;;28.60;18.00;;;;;;;;;;766786;180;915735;-67
2021/03/09 02:05:12;;;;;;;28.33;15.77;;;;;;;;;;756098;183;915132;-67
2021/03/09 02:07:54;;;;;;;25.60;15.87;;;;;;;;;;774982;180;946083;-65
2021/03/09 02:10:35;;;;;;;33.78;18.12;;;;;;;;;;772538;180;917656;-66
2021/03/09 02:13:32;;;;;;;30.13;20.03;;;;;;;;;;777867;180;919947;-65
2021/03/09 02:16:14;;;;;;;32.22;19.17;;;;;;;;;;771815;179;919351;-65
2021/03/09 02:18:58;;;;;;;33.80;18.63;;;;;;;;;;771466;180;920172;-67
2021/03/09 02:21:43;;;;;;;38.43;19.70;;;;;;;;;;770477;180;918227;-65
2021/03/09 02:24:44;;;;;;;31.52;19.45;;;;;;;;;;772404;180;918521;-66
2021/03/09 02:27:31;;;;;;;35.10;22.27;;;;;;;;;;763525;180;918784;-65
2021/03/09 02:30:16;;;;;;;42.20;21.93;;;;;;;;;;770865;180;919160;-65
2021/03/09 02:32:58;;;;;;;34.00;19.40;;;;;;;;;;773879;180;919999;-67
2021/03/09 02:35:40;;;;;;;31.23;18.73;;;;;;;;;;766768;180;1178216;-67
2021/03/09 02:38:21;;;;;;;30.57;17.80;;;;;;;;;;771121;178;918879;-67
2021/03/09 02:41:02;;;;;;;29.10;17.33;;;;;;;;;;766947;180;919364;-66
2021/03/09 02:43:44;;;;;;;31.23;17.50;;;;;;;;;;770691;180;918769;-66
2021/03/09 02:46:25;;;;;;;36.07;19.77;;;;;;;;;;763543;180;918388;-66
2021/03/09 02:49:06;;;;;;;37.40;22.73;;;;;;;;;;773796;180;918041;-67
2021/03/09 02:51:47;;;;;;;31.10;19.50;;;;;;;;;;767098;180;920132;-67
2021/03/09 02:54:28;;;;;;;49.40;19.30;;;;;;;;;;767202;180;918824;-67
2021/03/09 02:57:09;;;;;;;34.87;20.33;;;;;;;;;;767668;180;1025725;-66
2021/03/09 02:59:50;;;;;;;32.33;19.20;;;;;;;;;;768910;180;918378;-67
2021/03/09 03:02:32;;;;;;;34.43;19.13;;;;;;;;;;767575;180;919500;-66
2021/03/09 03:05:13;;;;;;;40.93;19.53;;;;;;;;;;770648;180;919238;-65
2021/03/09 03:07:54;;;;;;;33.53;20.97;;;;;;;;;;768839;180;918599;-67
2021/03/09 03:10:35;;;;;;;38.20;21.00;;;;;;;;;;771599;180;917941;-67
2021/03/09 03:13:17;;;;;;;34.93;19.53;;;;;;;;;;768188;180;918519;-66
2021/03/09 03:15:58;;;;;;;37.57;20.23;;;;;;;;;;771000;180;918615;-66
2021/03/09 03:18:39;;;;;;;37.53;22.13;;;;;;;;;;764265;180;2180230;-68
2021/03/09 03:21:20;;;;;;;45.30;21.87;;;;;;;;;;773654;180;918227;-67
2021/03/09 03:24:02;;;;;;;30.90;17.70;;;;;;;;;;768763;180;918972;-67
2021/03/09 03:26:44;;;;;;;35.85;19.30;;;;;;;;;;773555;180;918587;-67
2021/03/09 03:29:25;;;;;;;38.50;21.90;;;;;;;;;;768510;180;919016;-66
2021/03/09 03:32:09;;;;;;;41.15;22.37;;;;;;;;;;766764;180;923715;-67
2021/03/09 03:34:51;;;;;;;53.83;23.00;;;;;;;;;;776811;180;918392;-67
2021/03/09 03:37:32;;;;;;;48.40;23.67;;;;;;;;;;772567;180;919756;-70
2021/03/09 03:40:21;;;;;;;43.30;23.30;;;;;;;;;;772645;180;918905;-68
2021/03/09 03:43:03;;;;;;;60.87;25.90;;;;;;;;;;768865;180;919853;-67
2021/03/09 03:45:44;;;;;;;39.90;22.70;;;;;;;;;;773419;181;918820;-67
2021/03/09 03:48:25;;;;;;;48.70;25.77;;;;;;;;;;769809;181;921854;-67
2021/03/09 03:51:06;;;;;;;50.80;28.43;;;;;;;;;;768720;180;913326;-66
2021/03/09 03:53:47;;;;;;;50.00;27.03;;;;;;;;;;767777;180;916697;-67
2021/03/09 03:56:35;;;;;;;57.97;33.43;;;;;;;;;;770216;180;919289;-65
2021/03/09 03:59:15;;;;;;;79.87;35.63;;;;;;;;;;757402;180;2979420;-67
2021/03/09 04:01:56;;;;;;;79.43;34.20;;;;;;;;;;771269;180;912556;-66
2021/03/09 04:04:38;;;;;;;60.23;33.00;;;;;;;;;;768982;180;1131289;-65
2021/03/09 04:07:19;;;;;;;62.80;35.05;;;;;;;;;;770720;181;1021467;-67
2021/03/09 04:10:00;;;;;;;57.27;28.13;;;;;;;;;;767707;180;918606;-66
2021/03/09 04:12:41;;;;;;;83.97;37.03;;;;;;;;;;769751;179;919377;-66
2021/03/09 04:15:23;;;;;;;56.17;27.47;;;;;;;;;;768179;180;915124;-66
2021/03/09 04:18:03;;;;;;;47.00;26.90;;;;;;;;;;769563;180;914826;-66
2021/03/09 04:20:45;;;;;;;46.40;26.20;;;;;;;;;;767553;181;916504;-66
2021/03/09 04:23:26;;;;;;;48.92;26.02;;;;;;;;;;773986;180;915839;-66
2021/03/09 04:26:07;;;;;;;49.40;25.63;;;;;;;;;;755363;182;1007553;-66
2021/03/09 04:28:48;;;;;;;55.17;24.83;;;;;;;;;;774071;180;915316;-67
2021/03/09 04:31:29;;;;;;;55.17;27.50;;;;;;;;;;773498;180;915994;-66
2021/03/09 04:34:11;;;;;;;54.43;27.43;;;;;;;;;;774560;180;921257;-65
2021/03/09 04:36:52;;;;;;;49.63;29.40;;;;;;;;;;772848;180;913824;-67
2021/03/09 04:39:33;;;;;;;58.17;30.07;;;;;;;;;;777964;178;914504;-67
2021/03/09 04:42:15;;;;;;;52.37;28.73;;;;;;;;;;775297;180;1186828;-63
2021/03/09 04:44:58;;;;;;;51.77;30.43;;;;;;;;;;780720;180;909144;-64
2021/03/09 04:47:40;;;;;;;51.07;30.27;;;;;;;;;;779067;180;919912;-65
2021/03/09 04:50:21;;;;;;;45.73;26.90;;;;;;;;;;774778;180;917703;-70
2021/03/09 04:53:02;;;;;;;52.42;28.20;;;;;;;;;;776466;181;923334;-67
2021/03/09 04:55:43;;;;;;;45.63;25.60;;;;;;;;;;778184;180;919054;-66
2021/03/09 04:58:24;;;;;;;50.00;29.70;;;;;;;;;;773528;180;922961;-66
2021/03/09 05:01:05;;;;;;;56.00;29.27;;;;;;;;;;769026;180;913866;-66
2021/03/09 05:03:46;;;;;;;63.83;28.80;;;;;;;;;;770947;180;915085;-65
2021/03/09 05:06:27;;;;;;;53.80;30.00;;;;;;;;;;769519;180;774625;-67
2021/03/09 05:09:08;;;;;;;50.77;27.90;;;;;;;;;;775693;180;617525;-66
2021/03/09 05:11:49;;;;;;;43.43;26.17;;;;;;;;;;771146;180;921689;-67
2021/03/09 05:14:30;;;;;;;56.60;28.77;;;;;;;;;;777652;180;624704;-64
2021/03/09 05:17:11;;;;;;;61.30;30.47;;;;;;;;;;766372;179;921791;-64
2021/03/09 05:19:52;;;;;;;49.13;26.37;;;;;;;;;;770540;181;919273;-64
2021/03/09 05:22:33;;;;;;;58.63;29.43;;;;;;;;;;767146;180;919129;-64
2021/03/09 05:24:59;;;;;;;63.53;29.63;;;;;;;;;;767837;181;919557;-64
2021/03/09 05:27:25;;;;;;;71.70;35.90;;;;;;;;;;767012;181;918862;-67
2021/03/09 05:29:51;;;;;;;55.58;28.95;;;;;;;;;;760613;183;918302;-65
2021/03/09 05:32:17;;;;;;;48.60;28.73;;;;;;;;;;749154;183;919138;-66
2021/03/09 05:34:43;;;;;;;52.37;26.17;;;;;;;;;;749727;184;918740;-66
2021/03/09 05:37:08;;;;;;;56.90;30.10;;;;;;;;;;755356;183;925861;-65
2021/03/09 05:39:34;;;;;;;60.70;30.93;;;;;;;;;;752924;183;1016667;-66
2021/03/09 05:42:02;;;;;;;55.10;28.60;;;;;;;;;;755515;183;924876;-67
2021/03/09 05:44:28;;;;;;;48.55;29.80;;;;;;;;;;756159;184;920643;-64
2021/03/09 05:46:54;;;;;;;66.30;34.50;;;;;;;;;;761242;183;917376;-66
2021/03/09 05:49:20;;;;;;;74.57;36.53;;;;;;;;;;750411;183;918868;-66
2021/03/09 05:51:46;;;;;;;68.37;31.15;;;;;;;;;;758317;181;921976;-66
2021/03/09 05:54:11;;;;;;;61.67;29.80;;;;;;;;;;764985;182;897425;-66
2021/03/09 05:56:37;;;;;;;50.67;29.40;;;;;;;;;;749101;183;918188;-65
2021/03/09 05:59:03;;;;;;;55.70;29.37;;;;;;;;;;751965;183;1021715;-65
2021/03/09 06:01:29;;;;;;;65.57;33.53;;;;;;;;;;760078;183;918904;-64
2021/03/09 06:03:55;;;;;;;63.87;34.60;;;;;;;;;;752612;183;919059;-65
2021/03/09 06:06:21;;;;;;;55.67;28.95;;;;;;;;;;747336;184;922646;-66
2021/03/09 06:08:47;;;;;;;99.77;50.37;;;;;;;;;;761547;183;893057;-66
2021/03/09 06:11:13;;;;;;;98.07;48.00;;;;;;;;;;754669;183;918911;-65
2021/03/09 06:13:38;;;;;;;80.37;44.53;;;;;;;;;;753112;180;918718;-65
2021/03/09 06:16:04;;;;;;;80.78;46.33;;;;;;;;;;757976;184;919069;-65
2021/03/09 06:18:30;;;;;;;62.07;36.27;;;;;;;;;;757008;183;909824;-71
2021/03/09 06:21:02;;;;;;;62.60;35.07;;;;;;;;;;754439;184;919628;-65
2021/03/09 06:23:28;;;;;;;74.37;38.63;;;;;;;;;;760953;183;624874;-64
2021/03/09 06:25:54;;;;;;;67.20;34.70;;;;;;;;;;752169;184;918486;-64
2021/03/09 06:28:19;;;;;;;65.90;35.30;;;;;;;;;;748629;184;1032878;-65
2021/03/09 06:30:45;;;;;;;79.87;40.50;;;;;;;;;;757695;183;924271;-65
2021/03/09 06:33:11;;;;;;;82.00;44.60;;;;;;;;;;764951;183;918303;-65
2021/03/09 06:35:37;;;;;;;66.90;32.67;;;;;;;;;;746112;183;1094343;-63
2021/03/09 06:38:09;;;;;;;57.33;31.37;;;;;;;;;;748707;184;919033;-64
2021/03/09 06:40:35;;;;;;;61.83;33.00;;;;;;;;;;744088;184;1284170;-65
2021/03/09 06:43:00;;;;;;;55.27;29.23;;;;;;;;;;758904;184;919045;-64
2021/03/09 06:45:26;;;;;;;54.73;29.70;;;;;;;;;;751041;184;919513;-64
2021/03/09 06:47:52;;;;;;;70.43;34.13;;;;;;;;;;754840;184;918689;-63
2021/03/09 06:50:19;;;;;;;73.60;36.53;;;;;;;;;;753361;183;1369882;-63
2021/03/09 06:52:45;;;;;;;63.07;32.73;;;;;;;;;;757387;183;919150;-65
2021/03/09 06:55:11;;;;;;;64.07;33.13;;;;;;;;;;750650;183;918713;-66
2021/03/09 06:57:36;;;;;;;59.83;27.13;;;;;;;;;;766245;183;915731;-66
2021/03/09 07:00:04;;;;;;;127.17;61.00;;;;;;;;;;747635;183;950289;-66
2021/03/09 07:02:29;;;;;;;47.30;26.80;;;;;;;;;;750215;183;918761;-65
2021/03/09 07:05:01;;;;;;;59.83;31.20;;;;;;;;;;758052;183;918057;-66
2021/03/09 07:07:30;;;;;;;51.45;26.17;;;;;;;;;;758017;183;918944;-67
2021/03/09 07:09:59;;;;;;;48.60;28.90;;;;;;;;;;753691;183;917119;-67
2021/03/09 07:12:24;;;;;;;50.23;27.60;;;;;;;;;;752695;183;917938;-67
2021/03/09 07:14:50;;;;;;;55.40;29.97;;;;;;;;;;754451;183;919133;-66
2021/03/09 07:17:16;;;;;;;59.37;28.43;;;;;;;;;;757550;183;975206;-66
2021/03/09 07:19:42;;;;;;;49.17;26.43;;;;;;;;;;753322;183;921142;-66
2021/03/09 07:22:08;;;;;;;54.67;26.33;;;;;;;;;;751775;183;918014;-66
2021/03/09 07:24:34;;;;;;;48.10;25.97;;;;;;;;;;754439;183;927559;-64
2021/03/09 07:26:59;;;;;;;49.77;25.57;;;;;;;;;;754667;183;918268;-66
2021/03/09 07:29:25;;;;;;;56.47;28.00;;;;;;;;;;751146;184;913797;-66
2021/03/09 07:31:51;;;;;;;51.00;27.13;;;;;;;;;;755740;184;910642;-65
2021/03/09 07:34:17;;;;;;;42.03;22.57;;;;;;;;;;752666;184;908508;-66
2021/03/09 07:36:43;;;;;;;61.70;27.37;;;;;;;;;;744823;184;2190062;-66
2021/03/09 07:39:10;;;;;;;50.08;25.73;;;;;;;;;;729785;190;920551;-64
2021/03/09 07:41:40;;;;;;;44.33;27.83;;;;;;;;;;729442;190;919869;-67
2021/03/09 07:44:06;;;;;;;85.10;41.27;;;;;;;;;;752961;184;916830;-66
2021/03/09 07:46:31;;;;;;;64.77;30.13;;;;;;;;;;748981;183;917113;-66
2021/03/09 07:48:57;;;;;;;42.20;24.15;;;;;;;;;;752383;183;914823;-67
2021/03/09 07:51:23;;;;;;;33.60;20.10;;;;;;;;;;754978;183;919552;-66
2021/03/09 07:54:06;;;;;;;50.03;24.33;;;;;;;;;;746330;183;1329820;-67
2021/03/09 07:56:32;;;;;;;45.13;22.20;;;;;;;;;;749612;184;919287;-67
2021/03/09 07:59:03;;;;;;;39.57;22.97;;;;;;;;;;764690;183;637351;-67
2021/03/09 08:01:29;;;;;;;42.60;19.73;;;;;;;;;;756809;186;919696;-66
2021/03/09 08:03:55;;;;;;;32.37;18.90;;;;;;;;;;756266;183;918179;-67
2021/03/09 08:06:21;;;;;;;36.60;17.07;;;;;;;;;;751016;183;918463;-67
2021/03/09 08:08:47;;;;;;;33.50;17.00;;;;;;;;;;752175;183;923422;-66
2021/03/09 08:11:28;;;;;;;30.30;15.90;;;;;;;;;;750216;184;918573;-66
2021/03/09 08:14:00;;;;;;;34.83;18.00;;;;;;;;;;755894;182;917772;-65
2021/03/09 08:16:34;;;;;;;30.55;16.60;;;;;;;;;;751388;182;919223;-66
2021/03/09 08:18:59;;;;;;;29.50;14.20;;;;;;;;;;749185;183;1020979;-64
2021/03/09 08:21:46;;;;;;;21.30;13.77;;;;;;;;;;762303;182;904447;-65
2021/03/09 08:24:12;;;;;;;28.70;16.43;;;;;;;;;;761256;183;933652;-62
2021/03/09 08:26:45;;;;;;;30.23;16.40;;;;;;;;;;762429;183;919155;-63
2021/03/09 08:29:17;;;;;;;26.43;15.17;;;;;;;;;;751872;183;1019907;-63
2021/03/09 08:31:43;;;;;;;20.30;9.17;;;;;;;;;;752768;184;918264;-63
2021/03/09 08:34:23;;;;;;;22.00;14.07;;;;;;;;;;756134;184;921728;-62
2021/03/09 08:36:49;;;;;;;27.90;14.47;;;;;;;;;;762902;183;923869;-62
2021/03/09 08:39:15;;;;;;;29.17;13.23;;;;;;;;;;758110;183;891434;-62
2021/03/09 08:41:56;;;;;;;28.67;15.05;;;;;;;;;;755962;183;939887;-63
2021/03/09 08:44:22;;;;;;;15.70;9.90;;;;;;;;;;749730;183;932805;-62
2021/03/09 08:46:53;;;;;;;27.83;15.30;;;;;;;;;;758842;181;915793;-62
2021/03/09 08:49:25;;;;;;;34.70;14.47;;;;;;;;;;760181;183;915469;-62
2021/03/09 08:51:51;;;;;;;40.07;20.90;;;;;;;;;;756721;183;912203;-61
2021/03/09 08:54:18;;;;;;;23.58;12.37;;;;;;;;;;753096;184;919341;-62
2021/03/09 08:56:43;;;;;;;27.95;12.98;;;;;;;;;;754940;183;919196;-61
2021/03/09 08:59:09;;;;;;;29.20;15.10;;;;;;;;;;762408;180;918924;-60
2021/03/09 09:01:35;;;;;;;16.83;10.60;;;;;;;;;;756625;183;919002;-61
2021/03/09 09:04:01;;;;;;;18.83;12.13;;;;;;;;;;762272;183;917374;-62
2021/03/09 09:06:27;;;;;;;16.20;9.00;;;;;;;;;;750455;184;905910;-62
2021/03/09 09:08:53;;;;;;;23.47;12.03;;;;;;;;;;743639;184;1339469;-61
2021/03/09 09:11:18;;;;;;;28.67;15.53;;;;;;;;;;744511;186;919009;-61
2021/03/09 09:13:44;;;;;;;21.93;15.70;;;;;;;;;;758424;183;918866;-61
2021/03/09 09:16:16;;;;;;;20.33;14.10;;;;;;;;;;751193;183;919286;-63
2021/03/09 09:18:42;;;;;;;24.40;9.90;;;;;;;;;;748224;184;991365;-62
2021/03/09 09:21:08;;;;;;;16.97;10.27;;;;;;;;;;756932;182;918954;-63
2021/03/09 09:23:34;;;;;;;16.17;11.27;;;;;;;;;;753324;183;1022263;-62
2021/03/09 09:26:00;;;;;;;15.87;8.63;;;;;;;;;;754948;182;938744;-62
2021/03/09 09:28:28;;;;;;;22.30;9.07;;;;;;;;;;756283;183;919725;-63
2021/03/09 09:30:54;;;;;;;20.73;10.23;;;;;;;;;;755470;180;918797;-62
2021/03/09 09:33:20;;;;;;;32.20;15.87;;;;;;;;;;759329;183;918087;-62
2021/03/09 09:35:46;;;;;;;30.37;14.85;;;;;;;;;;756353;184;919152;-62
2021/03/09 09:38:13;;;;;;;16.10;9.37;;;;;;;;;;757535;183;918916;-63
2021/03/09 09:40:39;;;;;;;17.27;11.17;;;;;;;;;;751863;184;920408;-61
2021/03/09 09:43:05;;;;;;;19.83;8.83;;;;;;;;;;750048;183;919227;-62
2021/03/09 09:45:31;;;;;;;13.90;7.70;;;;;;;;;;760537;183;919338;-62
2021/03/09 09:47:58;;;;;;;11.47;6.67;;;;;;;;;;750156;184;866701;-61
2021/03/09 09:50:23;;;;;;;15.27;6.60;;;;;;;;;;759155;183;915446;-63
2021/03/09 09:52:50;;;;;;;13.25;5.93;;;;;;;;;;755774;184;911901;-60
2021/03/09 09:55:16;;;;;;;17.27;10.20;;;;;;;;;;748792;186;919220;-61
2021/03/09 09:57:42;;;;;;;13.23;4.83;;;;;;;;;;757095;181;921760;-62
2021/03/09 10:00:11;;;;;;;10.43;5.90;;;;;;;;;;753178;183;918849;-61
2021/03/09 10:02:36;;;;;;;10.40;5.70;;;;;;;;;;756902;183;918066;-61
2021/03/09 10:05:02;;;;;;;11.15;6.32;;;;;;;;;;759376;183;918751;-62
2021/03/09 10:07:44;;;;;;;7.57;4.03;;;;;;;;;;754309;183;999699;-61
2021/03/09 10:10:25;;;;;;;7.50;4.80;;;;;;;;;;752832;184;919173;-62
2021/03/09 10:13:06;;;;;;;12.00;7.10;;;;;;;;;;750949;183;961001;-63
2021/03/09 10:15:38;;;;;;;11.73;7.50;;;;;;;;;;750049;184;1020836;-62
2021/03/09 10:18:03;;;;;;;12.40;8.57;;;;;;;;;;756520;183;918903;-62
2021/03/09 10:20:29;;;;;;;17.20;8.00;;;;;;;;;;758136;183;921436;-62
2021/03/09 10:23:01;;;;;;;13.02;7.15;;;;;;;;;;750075;183;920121;-62
2021/03/09 10:25:27;;;;;;;10.13;5.43;;;;;;;;;;752944;183;919261;-62
2021/03/09 10:28:01;;;;;;;14.37;8.03;;;;;;;;;;758296;184;908654;-63
2021/03/09 10:30:33;;;;;;;21.63;10.53;;;;;;;;;;754593;181;2396292;-62
2021/03/09 10:32:59;;;;;;;16.73;10.20;;;;;;;;;;752495;183;915319;-62
2021/03/09 10:35:26;;;;;;;18.75;8.45;;;;;;;;;;746822;183;919513;-62
2021/03/09 10:37:51;;;;;;;15.93;8.80;;;;;;;;;;757812;184;918701;-62
2021/03/09 10:40:33;;;;;;;14.73;7.80;;;;;;;;;;756893;183;918425;-62
2021/03/09 10:43:13;;;;;;;20.37;10.32;;;;;;;;;;756772;183;919192;-63
2021/03/09 10:45:39;;;;;;;16.60;10.07;;;;;;;;;;755010;183;919241;-63
2021/03/09 10:48:20;;;;;;;14.00;9.13;;;;;;;;;;751430;184;920491;-63
2021/03/09 10:50:46;;;;;;;16.20;9.63;;;;;;;;;;753745;183;1016355;-64
2021/03/09 10:53:12;;;;;;;15.77;10.80;;;;;;;;;;764693;183;1125328;-63
2021/03/09 10:55:38;;;;;;;32.00;15.83;;;;;;;;;;758743;183;919383;-63
2021/03/09 10:58:04;;;;;;;16.57;9.70;;;;;;;;;;753910;183;941104;-63
2021/03/09 11:00:30;;;;;;;16.30;8.30;;;;;;;;;;743227;186;919524;-64
2021/03/09 11:02:55;;;;;;;18.50;8.17;;;;;;;;;;757494;183;921883;-63
2021/03/09 11:05:22;;;;;;;17.67;9.02;;;;;;;;;;748481;183;1226996;-62
2021/03/09 11:07:47;;;;;;;21.60;8.90;;;;;;;;;;747874;183;1964430;-62
2021/03/09 11:10:14;;;;;;;16.07;7.83;;;;;;;;;;760701;182;919465;-62
2021/03/09 11:12:40;;;;;;;16.77;8.70;;;;;;;;;;755326;183;922260;-62
2021/03/09 11:15:06;;;;;;;20.37;10.85;;;;;;;;;;754291;183;956640;-62
2021/03/09 11:17:31;;;;;;;15.33;8.77;;;;;;;;;;761300;183;814734;-62
2021/03/09 11:20:02;;;;;;;16.30;9.60;;;;;;;;;;753993;184;920985;-63
2021/03/09 11:22:28;;;;;;;15.73;9.37;;;;;;;;;;754441;183;920622;-62
2021/03/09 11:24:55;;;;;;;17.10;9.32;;;;;;;;;;757048;183;920576;-61
2021/03/09 11:27:21;;;;;;;11.93;8.07;;;;;;;;;;755044;181;920057;-62
2021/03/09 11:29:46;;;;;;;15.57;9.20;;;;;;;;;;761980;183;939401;-62
2021/03/09 11:32:12;;;;;;;16.40;9.60;;;;;;;;;;753447;183;922038;-62
2021/03/09 11:34:38;;;;;;;10.40;7.10;;;;;;;;;;757340;184;923043;-61
2021/03/09 11:37:04;;;;;;;16.63;10.23;;;;;;;;;;748286;183;918932;-62
2021/03/09 11:39:30;;;;;;;13.30;8.60;;;;;;;;;;760226;183;920026;-65
2021/03/09 11:41:56;;;;;;;12.10;8.90;;;;;;;;;;759435;183;919867;-65
2021/03/09 11:44:22;;;;;;;19.27;9.97;;;;;;;;;;761546;183;918666;-63
2021/03/09 11:46:47;;;;;;;17.73;10.80;;;;;;;;;;757696;183;918796;-62
2021/03/09 11:49:13;;;;;;;17.70;9.60;;;;;;;;;;763692;183;919412;-64
2021/03/09 11:51:39;;;;;;;10.60;6.37;;;;;;;;;;754383;183;918129;-62
2021/03/09 11:54:05;;;;;;;14.80;9.73;;;;;;;;;;753776;183;919343;-62
2021/03/09 11:56:31;;;;;;;16.20;10.00;;;;;;;;;;757096;183;658216;-62
2021/03/09 11:58:57;;;;;;;14.00;8.80;;;;;;;;;;764146;183;628391;-62
2021/03/09 12:01:23;;;;;;;18.73;10.82;;;;;;;;;;761927;183;919646;-62
2021/03/09 12:03:49;;;;;;;16.53;10.13;;;;;;;;;;758270;184;631726;-62
2021/03/09 12:06:15;;;;;;;12.90;8.00;;;;;;;;;;765748;183;624819;-62
2021/03/09 12:08:40;;;;;;;18.77;8.90;;;;;;;;;;752786;182;916752;-63
2021/03/09 12:11:07;;;;;;;19.40;10.20;;;;;;;;;;753933;183;926127;-62
2021/03/09 12:13:32;;;;;;;14.17;8.43;;;;;;;;;;755005;183;920694;-63
2021/03/09 12:15:58;;;;;;;11.85;8.25;;;;;;;;;;752801;184;918160;-61
2021/03/09 12:18:24;;;;;;;17.70;9.60;;;;;;;;;;749074;183;927681;-62
2021/03/09 12:20:50;;;;;;;18.53;10.03;;;;;;;;;;761809;183;919720;-62
2021/03/09 12:23:16;;;;;;;20.83;11.23;;;;;;;;;;749695;183;920979;-62
2021/03/09 12:25:42;;;;;;;27.67;11.67;;;;;;;;;;752380;183;914323;-63
2021/03/09 12:28:07;;;;;;;17.80;9.70;;;;;;;;;;747939;183;919376;-62
2021/03/09 12:30:33;;;;;;;23.03;10.43;;;;;;;;;;758381;183;922158;-63
2021/03/09 12:32:59;;;;;;;21.00;9.90;;;;;;;;;;756586;183;919246;-63
2021/03/09 12:35:25;;;;;;;12.27;8.30;;;;;;;;;;755312;183;918934;-63
2021/03/09 12:37:51;;;;;;;20.87;9.67;;;;;;;;;;757812;184;915252;-62
2021/03/09 12:40:17;;;;;;;19.90;10.40;;;;;;;;;;746693;183;919000;-63
2021/03/09 12:42:43;;;;;;;17.52;7.70;;;;;;;;;;752153;184;918413;-62
2021/03/09 12:45:09;;;;;;;15.80;9.03;;;;;;;;;;753377;183;918847;-62
2021/03/09 12:47:35;;;;;;;16.63;10.70;;;;;;;;;;754847;184;919241;-62
2021/03/09 12:50:01;;;;;;;15.90;10.27;;;;;;;;;;755886;183;919966;-62
2021/03/09 12:52:27;;;;;;;17.93;10.87;;;;;;;;;;763369;183;918325;-63
2021/03/09 12:54:52;;;;;;;15.40;10.50;;;;;;;;;;749991;183;919257;-63
2021/03/09 12:57:18;;;;;;;17.98;11.45;;;;;;;;;;745063;183;2651479;-63
2021/03/09 12:59:44;;;;;;;20.47;11.57;;;;;;;;;;752554;183;918013;-62
2021/03/09 13:02:10;;;;;;;19.65;11.52;;;;;;;;;;754540;183;917208;-65
2021/03/09 13:04:36;;;;;;;16.27;11.00;;;;;;;;;;758819;182;922225;-62
2021/03/09 13:07:02;;;;;;;17.57;9.70;;;;;;;;;;756030;183;922150;-63
2021/03/09 13:09:28;;;;;;;17.13;11.30;;;;;;;;;;753433;183;935889;-63
2021/03/09 13:11:53;;;;;;;18.30;12.50;;;;;;;;;;752580;184;918355;-62
2021/03/09 13:14:19;;;;;;;20.20;10.83;;;;;;;;;;754247;183;919592;-63
2021/03/09 13:16:45;;;;;;;20.10;12.20;;;;;;;;;;753843;183;916502;-63
2021/03/09 13:19:11;;;;;;;17.13;11.30;;;;;;;;;;758464;183;918113;-64
2021/03/09 13:21:37;;;;;;;23.63;12.30;;;;;;;;;;743292;183;2529568;-63
2021/03/09 13:24:04;;;;;;;15.57;11.33;;;;;;;;;;756578;183;919934;-63
2021/03/09 13:26:29;;;;;;;22.07;10.50;;;;;;;;;;752834;183;918515;-63
2021/03/09 13:28:55;;;;;;;20.10;12.20;;;;;;;;;;760547;183;920061;-63
2021/03/09 13:31:21;;;;;;;20.83;10.50;;;;;;;;;;750998;183;1001628;-63
2021/03/09 13:33:47;;;;;;;23.67;12.37;;;;;;;;;;759827;183;918633;-63
2021/03/09 13:36:13;;;;;;;20.40;10.60;;;;;;;;;;751253;183;1016514;-63
2021/03/09 13:38:39;;;;;;;15.35;10.80;;;;;;;;;;751411;180;998591;-63
2021/03/09 13:41:04;;;;;;;14.40;10.00;;;;;;;;;;752017;184;918309;-63
2021/03/09 13:43:30;;;;;;;21.60;12.50;;;;;;;;;;753307;184;922630;-63
2021/03/09 13:45:56;;;;;;;16.75;10.55;;;;;;;;;;750411;184;1084167;-64
2021/03/09 13:48:22;;;;;;;22.13;14.43;;;;;;;;;;760137;183;919322;-63
2021/03/09 13:50:51;;;;;;;14.95;11.85;;;;;;;;;;744986;185;919810;-65
2021/03/09 13:53:17;;;;;;;20.43;14.20;;;;;;;;;;752703;183;917783;-63
2021/03/09 13:55:43;;;;;;;21.47;11.77;;;;;;;;;;752280;184;927121;-63
2021/03/09 13:58:09;;;;;;;19.92;11.52;;;;;;;;;;738438;188;918305;-63
2021/03/09 14:00:34;;;;;;;18.30;12.30;;;;;;;;;;751127;184;918948;-63
2021/03/09 14:03:00;;;;;;;22.47;12.00;;;;;;;;;;745600;184;1023425;-63
2021/03/09 14:05:26;;;;;;;17.70;10.57;;;;;;;;;;747296;187;938307;-63
2021/03/09 14:07:52;;;;;;;19.43;11.60;;;;;;;;;;719290;189;936215;-64
2021/03/09 14:10:18;;;;;;;29.23;13.20;;;;;;;;;;749489;184;918968;-63
2021/03/09 14:12:44;;;;;;;17.67;11.03;;;;;;;;;;753482;183;1415556;-64
2021/03/09 14:15:10;;;;;;;18.43;10.20;;;;;;;;;;752400;184;918434;-63
2021/03/09 14:17:38;;;;;;;21.12;14.52;;;;;;;;;;748502;183;925017;-63
2021/03/09 14:20:02;;;;;;;29.10;16.20;;;;;;;;;;758734;183;921718;-64
2021/03/09 14:22:28;;;;;;;23.50;14.80;;;;;;;;;;737690;186;919264;-63
2021/03/09 14:24:54;;;;;;;28.27;18.60;;;;;;;;;;762040;183;916360;-63
2021/03/09 14:27:20;;;;;;;25.73;17.07;;;;;;;;;;744113;183;1994971;-64
2021/03/09 14:29:46;;;;;;;20.20;13.30;;;;;;;;;;761754;183;915458;-63
2021/03/09 14:32:13;;;;;;;29.33;13.53;;;;;;;;;;758247;183;918955;-63
2021/03/09 14:34:38;;;;;;;22.50;15.43;;;;;;;;;;750693;184;917118;-63